createdAt,value
2023-03-02T00:01:11.214Z,3.70
2023-03-02T00:04:22.183Z,3.70
2023-03-02T00:07:35.932Z,3.60
2023-03-02T00:10:49.295Z,4.20
2023-03-02T00:13:53.395Z,3.50
2023-03-02T00:17:02.832Z,3.50
2023-03-02T00:20:11.247Z,4.10
2023-03-02T00:23:17.541Z,3.50
2023-03-02T00:26:21.721Z,2.90
2023-03-02T00:29:25.429Z,3.70
2023-03-02T00:32:30.839Z,1.80
2023-03-02T00:35:39.983Z,3.40
2023-03-02T00:38:45.255Z,4.60
2023-03-02T00:41:50.899Z,3.40
2023-03-02T00:44:55.713Z,4.60
2023-03-02T00:47:59.340Z,3.30
2023-03-02T00:51:02.730Z,3.40
2023-03-02T00:54:10.347Z,3.40
2023-03-02T00:57:17.846Z,3.40
2023-03-02T01:00:23.375Z,2.30
2023-03-02T01:03:28.170Z,3.40
2023-03-02T01:06:31.915Z,3.30
2023-03-02T01:09:53.477Z,3.30
2023-03-02T01:13:04.255Z,3.30
2023-03-02T01:16:10.418Z,3.30
2023-03-02T01:19:16.664Z,4.80
2023-03-02T01:22:23.765Z,3.30
2023-03-02T01:25:35.931Z,4.00
2023-03-02T01:28:40.741Z,3.30
2023-03-02T01:31:48.917Z,3.20
2023-03-02T01:34:54.938Z,3.20
2023-03-02T01:38:00.600Z,3.20
2023-03-02T01:41:16.372Z,3.20
2023-03-02T01:44:43.449Z,2.40
2023-03-02T01:47:46.852Z,3.20
2023-03-02T01:50:56.798Z,3.20
2023-03-02T01:54:09.460Z,3.20
2023-03-02T01:57:16.383Z,4.10
2023-03-02T02:00:28.246Z,3.20
2023-03-02T02:03:33.804Z,3.20
2023-03-02T02:06:42.055Z,3.10
2023-03-02T02:09:49.046Z,3.20
2023-03-02T02:12:54.298Z,3.30
2023-03-02T02:15:57.982Z,3.10
2023-03-02T02:19:37.111Z,3.10
2023-03-02T02:23:01.022Z,1.20
2023-03-02T02:26:30.894Z,3.20
2023-03-02T02:29:39.475Z,3.10
2023-03-02T02:32:50.741Z,3.10
2023-03-02T02:36:09.203Z,3.10
2023-03-02T02:39:23.440Z,4.50
2023-03-02T02:42:35.625Z,2.80
2023-03-02T02:45:46.567Z,2.80
2023-03-02T02:48:59.217Z,1.50
2023-03-02T02:52:09.586Z,3.00
2023-03-02T02:55:22.493Z,3.00
2023-03-02T02:58:43.292Z,4.20
2023-03-02T03:01:50.590Z,2.90
2023-03-02T03:05:02.540Z,2.80
2023-03-02T03:08:11.436Z,2.80
2023-03-02T03:11:19.460Z,2.70
2023-03-02T03:14:31.560Z,2.70
2023-03-02T03:17:35.210Z,3.30
2023-03-02T03:20:38.967Z,2.70
2023-03-02T03:23:42.775Z,3.70
2023-03-02T03:26:46.849Z,2.60
2023-03-02T03:29:52.462Z,4.30
2023-03-02T03:32:56.037Z,2.60
2023-03-02T03:36:01.129Z,2.50
2023-03-02T03:39:06.823Z,2.60
2023-03-02T03:42:11.768Z,2.50
2023-03-02T03:45:16.804Z,2.50
2023-03-02T03:48:20.601Z,2.50
2023-03-02T03:51:24.698Z,2.50
2023-03-02T03:54:28.024Z,2.20
2023-03-02T03:57:31.802Z,2.50
2023-03-02T04:00:39.407Z,2.50
2023-03-02T04:03:43.098Z,3.40
2023-03-02T04:06:46.732Z,2.50
2023-03-02T04:09:50.105Z,2.50
2023-03-02T04:12:54.210Z,2.50
2023-03-02T04:15:59.190Z,2.50
2023-03-02T04:19:04.291Z,2.50
2023-03-02T04:22:07.927Z,2.40
2023-03-02T04:25:12.532Z,3.80
2023-03-02T04:28:17.579Z,2.40
2023-03-02T04:31:23.223Z,2.40
2023-03-02T04:34:28.712Z,2.40
2023-03-02T04:37:36.071Z,3.60
2023-03-02T04:40:39.574Z,2.30
2023-03-02T04:43:44.000Z,2.30
2023-03-02T04:46:50.215Z,2.30
2023-03-02T04:49:56.784Z,2.40
2023-03-02T04:53:00.961Z,3.50
2023-03-02T04:56:04.588Z,2.40
2023-03-02T04:59:08.760Z,2.30
2023-03-02T05:02:19.282Z,4.50
2023-03-02T05:05:25.932Z,3.10
2023-03-02T05:08:29.723Z,2.30
2023-03-02T05:11:33.358Z,2.30
2023-03-02T05:14:36.752Z,3.20
2023-03-02T05:17:42.481Z,2.30
2023-03-02T05:20:46.094Z,2.30
2023-03-02T05:23:50.290Z,2.30
2023-03-02T05:26:53.596Z,2.90
2023-03-02T05:29:57.172Z,2.20
2023-03-02T05:33:01.928Z,2.00
2023-03-02T05:36:05.876Z,2.20
2023-03-02T05:39:10.662Z,2.10
2023-03-02T05:42:16.330Z,2.10
2023-03-02T05:45:25.171Z,0.00
2023-03-02T05:48:31.313Z,2.10
2023-03-02T05:51:35.219Z,2.10
2023-03-02T05:54:39.871Z,2.10
2023-03-02T05:57:43.545Z,2.10
2023-03-02T06:00:49.949Z,4.00
2023-03-02T06:03:55.500Z,2.10
2023-03-02T06:06:58.868Z,2.10
2023-03-02T06:10:02.821Z,2.10
2023-03-02T06:13:06.486Z,2.10
2023-03-02T06:16:13.526Z,2.20
2023-03-02T06:19:21.081Z,2.30
2023-03-02T06:22:24.568Z,2.30
2023-03-02T06:25:28.705Z,4.20
2023-03-02T06:28:37.775Z,2.30
2023-03-02T06:31:50.589Z,2.30
2023-03-02T06:34:57.273Z,2.40
2023-03-02T06:38:05.838Z,2.50
2023-03-02T06:41:09.364Z,3.70
2023-03-02T06:44:14.667Z,2.50
2023-03-02T06:47:18.913Z,2.50
2023-03-02T06:50:24.450Z,2.70
2023-03-02T06:53:29.710Z,2.90
2023-03-02T06:56:34.004Z,2.70
2023-03-02T06:59:37.816Z,2.80
2023-03-02T07:02:42.380Z,4.70
2023-03-02T07:05:49.434Z,3.00
2023-03-02T07:08:54.905Z,2.30
2023-03-02T07:11:58.582Z,5.20
2023-03-02T07:15:02.719Z,3.40
2023-03-02T07:18:06.661Z,5.60
2023-03-02T07:21:12.581Z,3.60
2023-03-02T07:24:16.173Z,3.80
2023-03-02T07:27:23.052Z,4.10
2023-03-02T07:30:27.450Z,4.40
2023-03-02T07:33:30.884Z,4.70
2023-03-02T07:36:36.855Z,6.50
2023-03-02T07:39:40.340Z,5.10
2023-03-02T07:42:44.346Z,3.60
2023-03-02T07:45:48.526Z,5.50
2023-03-02T07:58:05.096Z,6.00
2023-03-02T08:01:13.868Z,6.00
2023-03-02T08:04:17.614Z,6.90
2023-03-02T08:07:22.704Z,6.40
2023-03-02T08:10:26.313Z,6.30
2023-03-02T08:19:38.584Z,6.60
2023-03-02T08:22:44.210Z,6.70
2023-03-02T08:41:17.964Z,7.50
2023-03-02T08:44:25.832Z,6.00
2023-03-02T08:47:30.272Z,7.40
2023-03-02T08:50:33.768Z,7.40
2023-03-02T08:53:43.024Z,7.50
2023-03-02T08:59:54.171Z,7.60
2023-03-02T09:02:57.586Z,7.70
2023-03-02T09:06:01.506Z,7.80
2023-03-02T09:09:07.241Z,7.90
2023-03-02T09:12:12.211Z,7.90
2023-03-02T09:15:17.862Z,7.90
2023-03-02T09:18:21.780Z,8.00
2023-03-02T09:21:26.589Z,8.00
2023-03-02T09:24:31.622Z,8.20
2023-03-02T09:27:37.347Z,8.30
2023-03-02T09:36:49.215Z,10.70
2023-03-02T09:39:59.385Z,8.70
2023-03-02T09:43:23.758Z,7.80
2023-03-02T09:46:35.577Z,8.90
2023-03-02T09:50:02.643Z,9.20
2023-03-02T09:53:34.051Z,9.10
2023-03-02T10:13:22.009Z,9.70
2023-03-02T10:16:36.485Z,6.90
2023-03-02T10:19:44.806Z,10.20
2023-03-02T10:22:55.437Z,8.10
2023-03-02T10:26:11.838Z,9.80
2023-03-02T11:13:41.242Z,10.20
2023-03-02T11:16:45.969Z,10.80
2023-03-02T11:19:51.208Z,9.10
2023-03-02T11:23:12.661Z,10.70
2023-03-02T11:26:24.345Z,10.60
2023-03-02T11:29:35.617Z,10.90
2023-03-02T11:32:54.716Z,10.90
2023-03-02T11:36:09.698Z,10.90
2023-03-02T11:39:24.723Z,8.80
2023-03-02T11:42:33.258Z,11.00
2023-03-02T11:45:43.188Z,11.10
2023-03-02T11:48:53.547Z,11.10
2023-03-02T11:52:00.878Z,11.20
2023-03-02T11:55:18.005Z,11.10
2023-03-02T11:58:26.484Z,11.30
2023-03-02T12:04:38.903Z,11.40
2023-03-02T12:07:44.599Z,11.50
2023-03-02T12:17:35.547Z,11.60
2023-03-02T13:50:18.179Z,10.70
2023-03-02T13:53:25.399Z,10.20
2023-03-02T13:56:40.087Z,11.20
2023-03-02T13:59:49.684Z,11.60
2023-03-02T14:02:55.588Z,11.50
2023-03-02T14:06:01.774Z,11.30
2023-03-02T14:09:08.548Z,11.80
2023-03-02T14:12:27.082Z,11.50
2023-03-02T14:15:38.765Z,9.00
2023-03-02T14:18:46.165Z,11.50
2023-03-02T14:21:51.182Z,11.50
2023-03-02T14:24:57.175Z,13.00
2023-03-02T14:31:06.487Z,11.50
2023-03-02T14:34:15.242Z,11.50
2023-03-02T14:37:41.376Z,11.50
2023-03-02T14:40:46.339Z,11.40
2023-03-02T14:43:57.475Z,11.90
2023-03-02T14:47:01.203Z,11.40
2023-03-02T14:53:19.285Z,13.30
2023-03-02T15:58:51.120Z,10.00
2023-03-02T16:01:59.284Z,9.90
2023-03-02T16:05:06.833Z,9.70
2023-03-02T16:36:43.816Z,8.90
2023-03-02T16:39:51.698Z,5.20
2023-03-02T16:49:08.853Z,8.40
2023-03-02T16:55:24.778Z,8.20
2023-03-02T17:04:59.214Z,10.60
2023-03-02T17:08:07.682Z,8.00
2023-03-02T17:21:19.027Z,7.70
2023-03-02T17:30:35.334Z,9.90
2023-03-02T17:33:41.120Z,7.20
2023-03-02T17:36:48.371Z,7.20
2023-03-02T17:49:33.283Z,7.00
2023-03-02T17:59:02.936Z,4.70
2023-03-02T18:05:14.364Z,6.80
2023-03-02T18:08:20.303Z,8.10
2023-03-02T18:11:26.300Z,6.80
2023-03-02T18:14:30.704Z,6.70
2023-03-02T18:17:34.766Z,6.60
2023-03-02T18:20:39.863Z,6.60
2023-03-02T18:23:49.343Z,6.60
2023-03-02T18:30:04.532Z,6.50
2023-03-02T18:33:09.153Z,10.40
2023-03-02T18:36:14.466Z,7.80
2023-03-02T18:39:22.293Z,6.40
2023-03-02T18:42:26.415Z,6.30
2023-03-02T18:45:35.552Z,6.10
2023-03-02T18:48:39.734Z,6.20
2023-03-02T18:51:43.331Z,6.10
2023-03-02T18:54:49.818Z,6.70
2023-03-02T18:57:55.059Z,6.00
2023-03-02T19:01:00.267Z,5.50
2023-03-02T19:04:04.950Z,5.80
2023-03-02T19:07:10.180Z,5.90
2023-03-02T19:10:17.358Z,5.80
2023-03-02T19:13:22.089Z,5.70
2023-03-02T19:16:38.435Z,5.60
2023-03-02T19:19:47.932Z,5.50
2023-03-02T19:23:00.477Z,3.20
2023-03-02T19:26:07.563Z,5.50
2023-03-02T19:29:14.176Z,5.40
2023-03-02T19:32:23.700Z,5.40
2023-03-02T19:41:42.946Z,5.30
2023-03-02T20:12:45.393Z,4.80
2023-03-02T20:15:58.890Z,4.70
2023-03-02T20:19:09.651Z,7.60
2023-03-02T20:22:33.219Z,4.50
2023-03-02T20:25:48.409Z,4.80
2023-03-02T20:29:00.576Z,4.60
2023-03-02T20:32:11.212Z,1.80
2023-03-02T20:35:16.397Z,4.60
2023-03-02T20:38:58.931Z,4.60
2023-03-02T20:42:09.860Z,5.20
2023-03-02T20:45:17.614Z,2.90
2023-03-02T20:48:26.340Z,4.50
2023-03-02T20:51:33.211Z,4.10
2023-03-02T20:54:54.852Z,4.40
2023-03-02T20:58:02.649Z,2.90
2023-03-02T21:01:10.328Z,4.40
2023-03-02T21:04:18.319Z,4.40
2023-03-02T21:07:23.979Z,4.30
2023-03-02T21:10:31.071Z,4.30
2023-03-02T21:13:34.688Z,4.30
2023-03-02T21:16:44.244Z,4.20
2023-03-02T21:19:47.908Z,4.30
2023-03-02T21:23:30.506Z,4.20
2023-03-02T21:26:37.843Z,4.90
2023-03-02T21:29:42.690Z,4.40
2023-03-02T21:32:48.292Z,4.20
2023-03-02T21:35:52.112Z,4.20
2023-03-02T21:42:01.545Z,5.00
2023-03-02T21:45:05.496Z,4.10
2023-03-02T21:48:10.200Z,2.50
2023-03-02T21:51:15.439Z,4.20
2023-03-02T21:54:21.331Z,4.10
2023-03-02T21:57:25.833Z,4.00
2023-03-02T22:00:32.920Z,3.90
2023-03-02T22:03:40.119Z,6.50
2023-03-02T22:06:43.612Z,9.20
2023-03-02T22:12:59.020Z,6.80
2023-03-02T22:16:15.367Z,4.10
2023-03-02T22:19:30.781Z,4.00
2023-03-02T22:25:45.385Z,4.00
2023-03-02T22:28:49.395Z,4.00
2023-03-02T22:31:54.935Z,4.00
2023-03-02T22:35:09.101Z,4.00
2023-03-02T22:38:24.467Z,4.00
2023-03-02T22:41:29.110Z,7.70
2023-03-02T22:44:32.509Z,3.90
2023-03-02T22:47:35.992Z,3.80
2023-03-02T22:50:41.434Z,3.80
2023-03-02T22:53:52.743Z,6.00
2023-03-02T22:56:57.193Z,3.80
2023-03-02T23:00:35.937Z,3.80
2023-03-02T23:03:43.669Z,3.70
2023-03-02T23:06:52.603Z,3.70
2023-03-02T23:09:56.617Z,5.40
2023-03-02T23:13:00.227Z,5.20
2023-03-02T23:16:14.424Z,3.60
2023-03-02T23:19:19.189Z,5.10
2023-03-02T23:22:28.443Z,3.60
2023-03-02T23:25:31.951Z,3.50
2023-03-02T23:28:35.432Z,3.60
2023-03-02T23:31:39.329Z,2.80
2023-03-02T23:34:44.694Z,3.50
2023-03-02T23:37:49.944Z,6.20
2023-03-02T23:40:54.377Z,3.50
2023-03-02T23:43:58.796Z,3.60
2023-03-02T23:47:03.560Z,4.70
2023-03-02T23:50:08.887Z,5.10
2023-03-02T23:53:14.036Z,3.60
2023-03-02T23:56:17.720Z,4.60
2023-03-02T23:59:21.847Z,2.80
